createdAt,value
2019-02-10T00:01:49.480Z,67.59
2019-02-10T00:06:54.942Z,67.61
2019-02-10T00:12:00.313Z,67.71
2019-02-10T00:17:05.853Z,67.97
2019-02-10T00:22:11.227Z,68.25
2019-02-10T00:27:16.942Z,68.18
2019-02-10T00:32:22.269Z,68.02
2019-02-10T00:37:27.610Z,68.29
2019-02-10T00:42:32.956Z,69.07
2019-02-10T00:47:38.437Z,71.39
2019-02-10T00:52:43.631Z,72.73
2019-02-10T00:57:48.803Z,73.48
2019-02-10T01:02:55.080Z,74.22
2019-02-10T01:08:01.067Z,74.11
2019-02-10T01:13:06.859Z,74.21
2019-02-10T01:18:13.255Z,74.54
2019-02-10T01:23:18.803Z,74.69
2019-02-10T01:28:24.575Z,74.80
2019-02-10T01:33:29.827Z,74.94
2019-02-10T01:38:35.179Z,75.24
2019-02-10T01:43:40.753Z,75.58
2019-02-10T01:48:46.207Z,75.46
2019-02-10T01:53:51.878Z,75.73
2019-02-10T01:58:57.544Z,75.58
2019-02-10T02:04:02.899Z,75.20
2019-02-10T02:09:10.421Z,75.14
2019-02-10T02:14:15.864Z,75.08
2019-02-10T02:19:21.745Z,74.73
2019-02-10T02:24:27.404Z,74.28
2019-02-10T02:29:32.871Z,73.99
2019-02-10T02:34:38.541Z,74.12
2019-02-10T02:39:43.792Z,74.14
2019-02-10T02:44:49.259Z,74.08
2019-02-10T02:49:55.248Z,73.82
2019-02-10T02:55:00.670Z,73.71
2019-02-10T03:00:08.485Z,73.63
2019-02-10T03:05:13.673Z,73.72
2019-02-10T03:10:19.021Z,73.03
2019-02-10T03:15:24.377Z,72.98
2019-02-10T03:20:29.932Z,72.82
2019-02-10T03:25:35.199Z,72.87
2019-02-10T03:30:40.805Z,72.87
2019-02-10T03:35:46.107Z,72.67
2019-02-10T03:40:51.482Z,72.59
2019-02-10T03:45:57.136Z,72.32
2019-02-10T03:51:02.497Z,72.36
2019-02-10T03:56:08.066Z,72.41
2019-02-10T04:01:13.402Z,72.55
2019-02-10T04:06:19.088Z,72.41
2019-02-10T04:11:24.453Z,72.40
2019-02-10T04:16:30.023Z,72.25
2019-02-10T04:21:35.728Z,72.48
2019-02-10T04:26:40.926Z,72.21
2019-02-10T04:31:46.154Z,72.26
2019-02-10T04:36:51.519Z,72.12
2019-02-10T04:41:56.828Z,72.19
2019-02-10T04:47:02.057Z,72.26
2019-02-10T04:52:07.460Z,72.40
2019-02-10T04:57:13.186Z,72.55
2019-02-10T05:02:20.427Z,72.64
2019-02-10T05:07:25.761Z,72.66
2019-02-10T05:12:30.999Z,72.71
2019-02-10T05:17:36.793Z,72.69
2019-02-10T05:22:42.124Z,72.70
2019-02-10T05:27:47.270Z,72.86
2019-02-10T05:32:52.458Z,72.77
2019-02-10T05:38:03.822Z,73.04
2019-02-10T05:43:05.482Z,73.20
2019-02-10T05:48:10.886Z,72.91
2019-02-10T05:53:16.426Z,73.03
2019-02-10T05:58:22.001Z,73.21
2019-02-10T06:03:27.482Z,73.14
2019-02-10T06:08:33.115Z,73.08
2019-02-10T06:13:38.487Z,72.99
2019-02-10T06:18:43.835Z,72.81
2019-02-10T06:23:49.511Z,72.94
2019-02-10T06:28:55.064Z,72.89
2019-02-10T06:34:00.231Z,72.90
2019-02-10T06:39:06.748Z,72.78
2019-02-10T06:44:12.219Z,72.56
2019-02-10T06:49:17.809Z,72.54
2019-02-10T06:54:23.114Z,72.75
2019-02-10T06:59:48.828Z,72.81
2019-02-10T07:04:54.190Z,72.97
2019-02-10T07:09:59.754Z,73.19
2019-02-10T07:15:05.998Z,72.91
2019-02-10T07:20:36.815Z,72.93
2019-02-10T07:25:44.688Z,73.39
2019-02-10T07:30:58.838Z,73.33
2019-02-10T07:36:19.105Z,73.32
2019-02-10T07:41:45.745Z,72.98
2019-02-10T07:47:00.025Z,73.14
2019-02-10T07:52:29.579Z,71.86
2019-02-10T07:58:09.411Z,71.50
2019-02-10T08:03:23.682Z,70.13
2019-02-10T08:08:46.612Z,70.36
2019-02-10T08:14:22.613Z,69.86
2019-02-10T08:19:36.880Z,69.00
2019-02-10T08:24:57.132Z,68.59
2019-02-10T08:30:28.035Z,68.11
2019-02-10T08:35:43.269Z,67.87
2019-02-10T08:41:04.217Z,67.80
2019-02-10T08:46:12.503Z,67.17
2019-02-10T08:51:40.168Z,66.63
2019-02-10T08:56:45.455Z,66.53
2019-02-10T09:01:50.661Z,65.48
2019-02-10T09:06:55.930Z,65.49
2019-02-10T09:12:01.400Z,65.85
2019-02-10T09:17:06.884Z,65.64
2019-02-10T09:22:12.181Z,65.55
2019-02-10T09:27:18.424Z,65.74
2019-02-10T09:32:24.678Z,65.55
2019-02-10T09:37:30.246Z,65.78
2019-02-10T09:42:37.545Z,65.34
2019-02-10T09:47:43.301Z,65.05
2019-02-10T09:52:48.563Z,64.77
2019-02-10T09:57:54.143Z,64.42
2019-02-10T10:02:59.294Z,64.02
2019-02-10T10:08:04.984Z,63.96
2019-02-10T10:13:10.887Z,63.35
2019-02-10T10:18:16.573Z,63.24
2019-02-10T10:23:22.570Z,62.81
2019-02-10T10:28:27.930Z,62.78
2019-02-10T10:33:33.497Z,62.30
2019-02-10T10:38:38.957Z,61.36
2019-02-10T10:43:44.322Z,61.83
2019-02-10T10:48:49.987Z,61.20
2019-02-10T10:53:55.353Z,60.43
2019-02-10T10:59:02.004Z,61.79
2019-02-10T11:04:07.287Z,61.67
2019-02-10T11:09:12.688Z,61.60
2019-02-10T11:14:19.897Z,61.23
2019-02-10T11:19:25.154Z,62.10
2019-02-10T11:24:30.673Z,62.00
2019-02-10T11:29:36.009Z,61.69
2019-02-10T11:34:46.103Z,61.57
2019-02-10T11:39:48.175Z,62.03
2019-02-10T11:44:53.449Z,61.79
2019-02-10T11:49:58.719Z,61.59
2019-02-10T11:55:06.349Z,61.28
2019-02-10T12:00:17.197Z,61.13
2019-02-10T12:05:22.539Z,61.09
2019-02-10T12:10:28.634Z,60.94
2019-02-10T12:15:33.978Z,61.62
2019-02-10T12:20:39.344Z,61.28
2019-02-10T12:25:44.878Z,61.20
2019-02-10T12:30:50.686Z,60.64
2019-02-10T12:35:58.328Z,61.01
2019-02-10T12:41:03.207Z,61.05
2019-02-10T12:46:08.585Z,61.47
2019-02-10T12:51:14.110Z,61.63
2019-02-10T12:56:19.315Z,61.51
2019-02-10T13:01:24.877Z,61.51
2019-02-10T13:06:30.336Z,61.39
2019-02-10T13:11:35.811Z,60.71
2019-02-10T13:16:41.087Z,60.75
2019-02-10T13:21:46.488Z,60.91
2019-02-10T13:26:51.814Z,60.97
2019-02-10T13:31:57.088Z,62.75
2019-02-10T13:37:02.700Z,63.40
2019-02-10T13:42:08.038Z,64.00
2019-02-10T13:47:13.605Z,64.15
2019-02-10T13:52:19.263Z,63.85
2019-02-10T13:57:24.624Z,63.94
2019-02-10T14:02:30.089Z,63.80
2019-02-10T14:07:35.646Z,63.65
2019-02-10T14:12:40.988Z,63.72
2019-02-10T14:17:46.588Z,63.38
2019-02-10T14:22:51.855Z,63.13
2019-02-10T14:27:57.394Z,63.05
2019-02-10T14:33:02.961Z,62.99
2019-02-10T14:38:08.721Z,63.33
2019-02-10T14:43:13.987Z,63.40
2019-02-10T14:48:19.089Z,63.63
2019-02-10T14:53:24.454Z,63.78
2019-02-10T14:58:29.853Z,63.74
2019-02-10T15:03:35.004Z,64.13
2019-02-10T15:08:40.495Z,64.75
2019-02-10T15:13:46.068Z,64.81
2019-02-10T15:18:51.804Z,65.05
2019-02-10T15:23:57.051Z,64.97
2019-02-10T15:29:02.605Z,65.07
2019-02-10T15:34:08.180Z,65.27
2019-02-10T15:39:16.130Z,66.02
2019-02-10T15:44:21.396Z,67.29
2019-02-10T15:49:26.790Z,67.77
2019-02-10T15:54:32.276Z,68.43
2019-02-10T15:59:37.451Z,69.11
2019-02-10T16:04:42.796Z,70.25
2019-02-10T16:09:48.173Z,70.48
2019-02-10T16:14:53.521Z,71.21
2019-02-10T16:19:58.909Z,71.32
2019-02-10T16:25:06.698Z,71.89
2019-02-10T16:30:17.678Z,72.59
2019-02-10T16:35:22.937Z,73.44
2019-02-10T16:40:27.982Z,73.15
2019-02-10T16:45:33.385Z,73.18
2019-02-10T16:50:38.594Z,73.42
2019-02-10T16:55:43.902Z,73.83
2019-02-10T17:00:49.307Z,73.92
2019-02-10T17:05:54.777Z,74.34
2019-02-10T17:11:00.253Z,74.63
2019-02-10T17:16:05.593Z,74.70
2019-02-10T17:21:10.753Z,75.12
2019-02-10T17:26:15.936Z,74.81
2019-02-10T17:31:21.886Z,74.50
2019-02-10T17:36:27.544Z,75.14
2019-02-10T17:41:33.009Z,75.25
2019-02-10T17:46:38.116Z,75.47
2019-02-10T17:51:43.346Z,74.83
2019-02-10T17:56:48.745Z,74.86
2019-02-10T18:01:54.363Z,75.40
2019-02-10T18:07:00.013Z,75.47
2019-02-10T18:12:05.387Z,75.72
2019-02-10T18:17:17.630Z,76.07
2019-02-10T18:22:34.836Z,76.79
2019-02-10T18:27:41.664Z,76.01
2019-02-10T18:32:48.941Z,76.44
2019-02-10T18:37:55.986Z,76.66
2019-02-10T18:43:08.852Z,76.66
2019-02-10T18:48:15.755Z,76.28
2019-02-10T18:53:38.936Z,76.48
2019-02-10T18:58:59.213Z,76.64
2019-02-10T19:04:07.045Z,76.65
2019-02-10T19:09:14.246Z,76.60
2019-02-10T19:14:27.376Z,76.51
2019-02-10T19:19:34.280Z,76.68
2019-02-10T19:24:46.756Z,76.79
2019-02-10T19:29:59.751Z,76.72
2019-02-10T19:35:23.443Z,76.44
2019-02-10T19:40:35.965Z,76.31
2019-02-10T19:45:45.796Z,76.20
2019-02-10T19:51:09.105Z,76.34
2019-02-10T19:56:32.166Z,76.29
2019-02-10T20:01:54.212Z,76.70
2019-02-10T20:07:01.223Z,76.39
2019-02-10T20:12:09.251Z,76.46
2019-02-10T20:17:31.317Z,76.77
2019-02-10T20:22:47.506Z,76.79
2019-02-10T20:27:57.467Z,76.99
2019-02-10T20:33:21.169Z,77.28
2019-02-10T20:38:39.243Z,77.46
2019-02-10T20:43:46.300Z,77.70
2019-02-10T20:48:56.486Z,77.68
2019-02-10T20:54:20.310Z,77.96
2019-02-10T20:59:33.514Z,77.86
2019-02-10T21:04:52.197Z,78.25
2019-02-10T21:10:16.336Z,78.19
2019-02-10T21:15:35.511Z,78.27
2019-02-10T21:20:45.420Z,78.25
2019-02-10T21:25:59.062Z,78.44
2019-02-10T21:31:12.376Z,78.46
2019-02-10T21:36:28.038Z,78.25
2019-02-10T21:41:35.132Z,78.13
2019-02-10T21:46:42.049Z,78.05
2019-02-10T21:51:47.497Z,77.90
2019-02-10T21:56:52.869Z,77.53
2019-02-10T22:01:58.610Z,77.38
2019-02-10T22:07:04.895Z,76.99
2019-02-10T22:12:10.266Z,76.49
2019-02-10T22:17:15.830Z,76.73
2019-02-10T22:22:21.166Z,76.35
2019-02-10T22:27:27.038Z,76.52
2019-02-10T22:32:32.408Z,75.89
2019-02-10T22:37:37.876Z,75.44
2019-02-10T22:42:45.747Z,75.66
2019-02-10T22:47:50.815Z,75.44
2019-02-10T22:52:56.015Z,75.29
2019-02-10T22:58:01.249Z,75.10
2019-02-10T23:03:07.220Z,74.87
2019-02-10T23:08:12.575Z,74.63
2019-02-10T23:13:18.250Z,74.90
2019-02-10T23:18:23.716Z,74.44
2019-02-10T23:23:29.071Z,74.54
2019-02-10T23:28:34.636Z,74.45
2019-02-10T23:33:39.845Z,74.31
2019-02-10T23:38:45.367Z,74.32
2019-02-10T23:43:50.786Z,74.50
2019-02-10T23:48:56.165Z,73.99
2019-02-10T23:54:01.429Z,73.77
2019-02-10T23:59:06.789Z,73.81
